createdAt,value
2022-12-09T00:00:20.321Z,99002.88
2022-12-09T00:02:49.438Z,99018.00
2022-12-09T00:05:18.827Z,99009.56
2022-12-09T00:07:48.917Z,99011.28
2022-12-09T00:10:17.967Z,99009.66
2022-12-09T00:12:46.744Z,99011.31
2022-12-09T00:15:15.528Z,99007.97
2022-12-09T00:17:44.258Z,99002.94
2022-12-09T00:20:14.602Z,99004.59
2022-12-09T00:22:44.480Z,99002.94
2022-12-09T00:25:15.210Z,99003.75
2022-12-09T00:27:44.453Z,99006.25
2022-12-09T00:30:14.049Z,99001.22
2022-12-09T00:32:43.104Z,98990.19
2022-12-09T00:35:13.687Z,99002.94
2022-12-09T00:37:42.307Z,99001.22
2022-12-09T00:40:12.185Z,99009.66
2022-12-09T00:42:43.162Z,99002.06
2022-12-09T00:45:12.326Z,99007.09
2022-12-09T00:47:41.582Z,98995.31
2022-12-09T00:50:11.739Z,98998.72
2022-12-09T00:52:40.573Z,99003.84
2022-12-09T00:55:09.920Z,99003.00
2022-12-09T00:57:40.508Z,99002.13
2022-12-09T01:00:12.545Z,99005.53
2022-12-09T01:02:41.514Z,99000.44
2022-12-09T01:05:10.617Z,99001.28
2022-12-09T01:07:39.673Z,99003.78
2022-12-09T01:10:10.068Z,98997.03
2022-12-09T01:12:39.305Z,98997.91
2022-12-09T01:15:09.035Z,98995.38
2022-12-09T01:17:39.988Z,98986.19
2022-12-09T01:20:11.253Z,98992.06
2022-12-09T01:22:40.808Z,98985.28
2022-12-09T01:25:10.514Z,98987.00
2022-12-09T01:27:39.192Z,98983.66
2022-12-09T01:30:10.416Z,98985.34
2022-12-09T01:32:41.510Z,98971.88
2022-12-09T01:35:11.280Z,98956.72
2022-12-09T01:37:40.226Z,98948.38
2022-12-09T01:40:12.545Z,98951.72
2022-12-09T01:42:41.425Z,98955.06
2022-12-09T01:45:32.005Z,98949.16
2022-12-09T01:48:05.351Z,98941.59
2022-12-09T01:50:37.237Z,98949.97
2022-12-09T01:53:08.085Z,98955.00
2022-12-09T01:55:37.529Z,98961.72
2022-12-09T01:58:07.076Z,98973.56
2022-12-09T02:00:36.005Z,98964.28
2022-12-09T02:03:09.132Z,98967.69
2022-12-09T02:05:39.071Z,98965.16
2022-12-09T02:08:12.874Z,98970.22
2022-12-09T02:10:55.362Z,98969.34
2022-12-09T02:13:33.983Z,98966.03
2022-12-09T02:16:07.622Z,98963.50
2022-12-09T02:18:42.808Z,98970.25
2022-12-09T02:21:17.222Z,98958.44
2022-12-09T02:23:52.309Z,98957.66
2022-12-09T02:26:26.823Z,98938.28
2022-12-09T02:29:22.959Z,98943.38
2022-12-09T02:32:15.085Z,98950.94
2022-12-09T02:34:53.628Z,98953.47
2022-12-09T02:37:28.557Z,98950.06
2022-12-09T02:40:04.041Z,98946.69
2022-12-09T02:42:37.880Z,98955.06
2022-12-09T02:45:10.051Z,98944.97
2022-12-09T02:47:46.054Z,98940.00
2022-12-09T02:50:22.214Z,98940.00
2022-12-09T02:52:55.038Z,98950.94
2022-12-09T02:55:25.097Z,98949.16
2022-12-09T02:57:59.325Z,98950.03
2022-12-09T03:00:28.810Z,98936.50
2022-12-09T03:02:59.249Z,98939.06
2022-12-09T03:05:40.055Z,98940.75
2022-12-09T03:08:17.556Z,98942.41
2022-12-09T03:10:58.520Z,98943.25
2022-12-09T03:13:47.024Z,98937.34
2022-12-09T03:16:23.000Z,98926.41
2022-12-09T03:18:59.692Z,98923.06
2022-12-09T03:21:31.109Z,98920.53
2022-12-09T03:24:02.107Z,98934.03
2022-12-09T03:26:34.711Z,98939.88
2022-12-09T03:29:09.341Z,98941.59
2022-12-09T03:31:39.958Z,98947.50
2022-12-09T03:34:12.314Z,98949.22
2022-12-09T03:36:44.667Z,98950.06
2022-12-09T03:39:18.532Z,98941.72
2022-12-09T03:41:52.339Z,98946.81
2022-12-09T03:44:27.662Z,98946.81
2022-12-09T03:46:56.703Z,98935.00
2022-12-09T03:49:25.426Z,98930.00
2022-12-09T03:51:59.580Z,98923.31
2022-12-09T03:54:34.062Z,98923.31
2022-12-09T03:57:03.507Z,98933.41
2022-12-09T03:59:36.632Z,98934.31
2022-12-09T04:02:07.710Z,98930.94
2022-12-09T04:04:42.134Z,98913.94
2022-12-09T04:07:12.828Z,98930.13
2022-12-09T04:09:43.773Z,98931.78
2022-12-09T04:12:12.565Z,98932.66
2022-12-09T04:14:41.241Z,98936.03
2022-12-09T04:17:10.333Z,98935.19
2022-12-09T04:19:39.503Z,98936.03
2022-12-09T04:22:08.464Z,98933.56
2022-12-09T04:24:39.462Z,98938.63
2022-12-09T04:27:08.113Z,98928.50
2022-12-09T04:29:37.131Z,98932.69
2022-12-09T04:32:06.978Z,98920.13
2022-12-09T04:34:36.159Z,98926.03
2022-12-09T04:37:05.158Z,98926.84
2022-12-09T04:39:34.408Z,98913.38
2022-12-09T04:42:04.600Z,98911.75
2022-12-09T04:44:33.468Z,98899.13
2022-12-09T04:47:02.135Z,98898.31
2022-12-09T04:49:31.091Z,98892.44
2022-12-09T04:52:00.166Z,98884.84
2022-12-09T04:54:29.065Z,98885.72
2022-12-09T04:56:57.821Z,98879.00
2022-12-09T04:59:29.115Z,98878.97
2022-12-09T05:01:58.634Z,98873.06
2022-12-09T05:04:27.867Z,98871.38
2022-12-09T05:06:57.908Z,98868.03
2022-12-09T05:09:27.188Z,98864.66
2022-12-09T05:11:58.287Z,98868.88
2022-12-09T05:14:28.634Z,98865.47
2022-12-09T05:16:57.486Z,98862.94
2022-12-09T05:19:26.520Z,98862.94
2022-12-09T05:21:55.295Z,98866.31
2022-12-09T05:24:24.275Z,98867.19
2022-12-09T05:26:53.106Z,98867.19
2022-12-09T05:29:23.537Z,98871.41
2022-12-09T05:31:56.017Z,98869.72
2022-12-09T05:34:25.104Z,98872.22
2022-12-09T05:36:54.220Z,98872.22
2022-12-09T05:39:23.349Z,98868.00
2022-12-09T05:41:53.323Z,98878.97
2022-12-09T05:44:22.228Z,98874.75
2022-12-09T05:46:51.398Z,98883.19
2022-12-09T05:49:22.121Z,98881.50
2022-12-09T05:51:50.884Z,98881.50
2022-12-09T05:54:19.486Z,98882.38
2022-12-09T05:56:48.946Z,98888.28
2022-12-09T05:59:18.388Z,98886.59
2022-12-09T06:01:47.215Z,98884.09
2022-12-09T06:04:16.138Z,98879.91
2022-12-09T06:06:47.006Z,98877.38
2022-12-09T06:09:16.773Z,98869.78
2022-12-09T06:11:45.558Z,98867.28
2022-12-09T06:14:14.485Z,98876.50
2022-12-09T06:16:44.080Z,98863.84
2022-12-09T06:19:13.916Z,98859.69
2022-12-09T06:21:43.714Z,98858.88
2022-12-09T06:24:13.666Z,98847.94
2022-12-09T06:26:42.411Z,98847.09
2022-12-09T06:29:12.224Z,98842.88
2022-12-09T06:31:41.422Z,98839.53
2022-12-09T06:34:10.512Z,98841.19
2022-12-09T06:36:39.338Z,98841.19
2022-12-09T06:39:10.560Z,98835.31
2022-12-09T06:41:43.280Z,98842.06
2022-12-09T06:44:15.826Z,98830.19
2022-12-09T06:46:49.008Z,98836.97
2022-12-09T06:49:18.402Z,98834.50
2022-12-09T06:51:47.739Z,98831.16
2022-12-09T06:54:17.264Z,98821.03
2022-12-09T06:56:47.775Z,98821.06
2022-12-09T06:59:16.802Z,98819.41
2022-12-09T07:01:45.919Z,98817.72
2022-12-09T07:04:16.061Z,98821.09
2022-12-09T07:06:47.105Z,98824.50
2022-12-09T07:09:18.788Z,98816.06
2022-12-09T07:11:50.343Z,98817.78
2022-12-09T07:14:20.126Z,98810.19
2022-12-09T07:16:49.356Z,98817.81
2022-12-09T07:19:19.160Z,98818.63
2022-12-09T07:21:48.083Z,98818.63
2022-12-09T07:24:18.658Z,98824.56
2022-12-09T07:26:47.675Z,98826.28
2022-12-09T07:29:18.860Z,98814.47
2022-12-09T07:31:49.544Z,98814.47
2022-12-09T07:34:18.882Z,98811.94
2022-12-09T07:36:48.320Z,98805.22
2022-12-09T07:39:19.258Z,98797.63
2022-12-09T07:41:52.687Z,98806.94
2022-12-09T07:44:22.889Z,98806.13
2022-12-09T07:46:52.077Z,98797.72
2022-12-09T07:49:20.935Z,98792.69
2022-12-09T07:51:50.144Z,98789.28
2022-12-09T07:54:20.680Z,98782.56
2022-12-09T07:56:50.701Z,98777.53
2022-12-09T07:59:19.706Z,98781.75
2022-12-09T08:01:49.906Z,98780.94
2022-12-09T08:04:19.215Z,98781.78
2022-12-09T08:06:48.595Z,98780.13
2022-12-09T08:09:17.799Z,98776.78
2022-12-09T08:11:47.071Z,98784.38
2022-12-09T08:14:16.302Z,98788.63
2022-12-09T08:16:45.001Z,98785.28
2022-12-09T08:19:16.299Z,98786.97
2022-12-09T08:21:48.420Z,98782.75
2022-12-09T08:24:20.348Z,98796.28
2022-12-09T08:26:52.077Z,98789.50
2022-12-09T08:29:21.536Z,98792.94
2022-12-09T08:31:50.637Z,98792.94
2022-12-09T08:34:20.779Z,98783.63
2022-12-09T08:36:50.203Z,98787.88
2022-12-09T08:39:19.063Z,98787.06
2022-12-09T08:41:48.468Z,98781.97
2022-12-09T08:44:20.161Z,98776.09
2022-12-09T08:46:51.181Z,98774.41
2022-12-09T08:49:23.327Z,98765.13
2022-12-09T08:51:54.089Z,98762.63
2022-12-09T08:54:24.211Z,98762.66
2022-12-09T08:56:55.144Z,98768.56
2022-12-09T08:59:24.859Z,98772.81
2022-12-09T09:01:54.549Z,98769.47
2022-12-09T09:04:25.237Z,98767.78
2022-12-09T09:06:54.748Z,98765.25
2022-12-09T09:09:24.386Z,98756.81
2022-12-09T09:11:53.448Z,98750.91
2022-12-09T09:14:22.238Z,98749.25
2022-12-09T09:16:51.004Z,98750.91
2022-12-09T09:19:22.952Z,98750.91
2022-12-09T09:21:54.108Z,98754.28
2022-12-09T09:24:26.030Z,98749.25
2022-12-09T09:26:55.425Z,98747.56
2022-12-09T09:29:26.303Z,98742.50
2022-12-09T09:31:56.475Z,98744.22
2022-12-09T09:34:27.442Z,98745.91
2022-12-09T09:36:59.240Z,98729.06
2022-12-09T09:39:28.199Z,98729.94
2022-12-09T09:42:05.978Z,98729.09
2022-12-09T09:44:40.362Z,98721.50
2022-12-09T09:47:18.712Z,98729.13
2022-12-09T09:49:51.831Z,98717.31
2022-12-09T09:52:24.659Z,98720.72
2022-12-09T09:54:53.503Z,98705.50
2022-12-09T09:57:31.382Z,98696.22
2022-12-09T10:00:10.451Z,98690.34
2022-12-09T10:02:59.447Z,98683.63
2022-12-09T10:05:32.835Z,98670.13
2022-12-09T10:08:23.885Z,98663.38
2022-12-09T10:11:03.870Z,98658.31
2022-12-09T10:13:46.090Z,98658.31
2022-12-09T10:16:19.004Z,98649.03
2022-12-09T10:19:08.068Z,98641.47
2022-12-09T10:21:43.394Z,98629.63
2022-12-09T10:24:25.209Z,98632.16
2022-12-09T10:27:02.844Z,98633.84
2022-12-09T10:29:47.771Z,98619.50
2022-12-09T10:32:19.888Z,98615.31
2022-12-09T10:34:49.887Z,98611.06
2022-12-09T10:37:30.833Z,98600.97
2022-12-09T10:40:20.636Z,98599.25
2022-12-09T10:43:02.075Z,98596.75
2022-12-09T10:45:52.475Z,98585.78
2022-12-09T10:48:32.725Z,98576.50
2022-12-09T10:51:07.030Z,98571.47
2022-12-09T10:53:37.714Z,98555.44
2022-12-09T10:56:08.539Z,98564.75
2022-12-09T10:58:37.344Z,98558.81
2022-12-09T11:01:09.583Z,98558.81
2022-12-09T11:03:42.445Z,98555.44
2022-12-09T11:06:24.561Z,98560.53
2022-12-09T11:08:57.167Z,98556.31
2022-12-09T11:11:44.629Z,98558.81
2022-12-09T11:14:26.563Z,98560.53
2022-12-09T11:16:58.349Z,98543.66
2022-12-09T11:19:35.164Z,98544.50
2022-12-09T11:22:25.115Z,98548.72
2022-12-09T11:24:56.701Z,98543.66
2022-12-09T11:27:31.889Z,98545.38
2022-12-09T11:30:13.755Z,98536.94
2022-12-09T11:32:59.741Z,98536.94
2022-12-09T11:35:35.990Z,98530.16
2022-12-09T11:38:16.606Z,98530.16
2022-12-09T11:40:45.597Z,98533.53
2022-12-09T11:43:15.790Z,98525.97
2022-12-09T11:45:47.222Z,98522.63
2022-12-09T11:48:33.684Z,98520.06
2022-12-09T11:51:04.247Z,98505.75
2022-12-09T11:53:35.491Z,98498.19
2022-12-09T11:56:11.790Z,98496.47
2022-12-09T11:58:48.449Z,98480.50
2022-12-09T12:01:25.200Z,98476.28
2022-12-09T12:03:58.239Z,98464.50
2022-12-09T12:06:31.147Z,98467.88
2022-12-09T12:09:05.954Z,98464.47
2022-12-09T12:11:41.599Z,98464.50
2022-12-09T12:14:18.112Z,98454.38
2022-12-09T12:16:55.731Z,98451.84
2022-12-09T12:19:30.301Z,98435.84
2022-12-09T12:22:34.097Z,98429.94
2022-12-09T12:25:20.370Z,98419.84
2022-12-09T12:28:09.740Z,98424.88
2022-12-09T12:30:48.471Z,98413.13
2022-12-09T12:36:33.868Z,98394.56
2022-12-09T12:39:12.313Z,98390.34
2022-12-09T12:41:52.028Z,98387.81
2022-12-09T12:44:44.042Z,98392.88
2022-12-09T12:47:22.768Z,98392.03
2022-12-09T12:50:21.986Z,98393.69
2022-12-09T12:52:59.560Z,98376.88
2022-12-09T12:55:53.381Z,98380.22
2022-12-09T12:58:38.452Z,98374.34
2022-12-09T13:01:17.457Z,98378.56
2022-12-09T13:03:59.222Z,98370.13
2022-12-09T13:06:39.101Z,98360.84
2022-12-09T13:09:13.524Z,98365.06
2022-12-09T13:11:55.014Z,98359.19
2022-12-09T13:14:32.212Z,98360.03
2022-12-09T13:17:03.401Z,98356.66
2022-12-09T13:19:39.825Z,98356.63
2022-12-09T13:22:18.747Z,98353.28
2022-12-09T13:25:00.097Z,98344.03
2022-12-09T13:27:39.690Z,98348.22
2022-12-09T13:30:15.052Z,98348.22
2022-12-09T13:33:03.488Z,98343.16
2022-12-09T13:35:39.775Z,98340.63
2022-12-09T13:38:26.504Z,98341.50
2022-12-09T13:40:55.193Z,98341.47
2022-12-09T13:43:27.204Z,98344.84
2022-12-09T13:45:58.630Z,98346.53
2022-12-09T13:48:41.985Z,98344.84
2022-12-09T13:51:12.594Z,98347.38
2022-12-09T13:53:47.894Z,98339.78
2022-12-09T13:56:27.654Z,98332.22
2022-12-09T13:59:32.534Z,98322.94
2022-12-09T14:02:10.823Z,98328.00
2022-12-09T14:04:49.512Z,98317.88
2022-12-09T14:07:28.914Z,98320.41
2022-12-09T14:09:59.635Z,98314.50
2022-12-09T14:12:51.076Z,98311.16
2022-12-09T14:15:36.699Z,98304.41
2022-12-09T14:18:26.873Z,98312.81
2022-12-09T14:21:17.256Z,98300.22
2022-12-09T14:24:11.841Z,98310.31
2022-12-09T14:26:46.373Z,98302.75
2022-12-09T14:29:47.292Z,98297.69
2022-12-09T14:32:29.432Z,98289.25
2022-12-09T14:35:06.423Z,98282.53
2022-12-09T14:37:54.274Z,98285.06
2022-12-09T14:40:48.920Z,98286.72
2022-12-09T14:43:39.669Z,98279.16
2022-12-09T14:46:22.748Z,98285.06
2022-12-09T14:48:56.764Z,98267.38
2022-12-09T14:51:29.351Z,98269.03
2022-12-09T14:54:02.573Z,98221.88
2022-12-09T14:56:34.128Z,98252.19
2022-12-09T14:59:08.758Z,98247.16
2022-12-09T15:01:49.433Z,98248.00
2022-12-09T15:04:25.635Z,98247.16
2022-12-09T15:07:12.995Z,98236.19
2022-12-09T15:09:51.105Z,98225.25
2022-12-09T15:12:22.207Z,98218.50
2022-12-09T15:14:58.774Z,98222.72
2022-12-09T15:17:31.393Z,98180.63
2022-12-09T15:20:01.282Z,98199.16
2022-12-09T15:22:32.815Z,98211.78
2022-12-09T15:25:04.287Z,98200.84
2022-12-09T15:27:32.984Z,98199.16
2022-12-09T15:30:22.579Z,98205.06
2022-12-09T15:32:51.828Z,98194.94
2022-12-09T15:35:24.864Z,98198.31
2022-12-09T15:37:57.375Z,98206.75
2022-12-09T15:40:29.615Z,98200.00
2022-12-09T15:43:03.242Z,98208.41
2022-12-09T15:45:37.062Z,98203.34
2022-12-09T15:48:11.195Z,98205.06
2022-12-09T15:50:45.308Z,98205.06
2022-12-09T15:53:20.555Z,98197.47
2022-12-09T15:55:52.653Z,98187.34
2022-12-09T15:58:29.964Z,98184.00
2022-12-09T16:01:00.365Z,98189.91
2022-12-09T16:03:32.851Z,98196.63
2022-12-09T16:06:05.362Z,98187.38
2022-12-09T16:08:38.003Z,98194.94
2022-12-09T16:11:07.674Z,98178.94
2022-12-09T16:13:36.333Z,98173.06
2022-12-09T16:16:28.287Z,98176.41
2022-12-09T16:18:57.317Z,98180.66
2022-12-09T16:21:29.015Z,98183.16
2022-12-09T16:24:08.245Z,98166.31
2022-12-09T16:26:39.706Z,98170.53
2022-12-09T16:29:27.471Z,98164.63
2022-12-09T16:32:17.157Z,98173.03
2022-12-09T16:34:47.825Z,98169.69
2022-12-09T16:37:28.539Z,98168.81
2022-12-09T16:39:57.624Z,98165.44
2022-12-09T16:42:36.463Z,98159.56
2022-12-09T16:45:24.106Z,98166.28
2022-12-09T16:47:56.577Z,98152.84
2022-12-09T16:50:31.455Z,98157.03
2022-12-09T16:53:08.328Z,98149.44
2022-12-09T16:55:37.391Z,98141.06
2022-12-09T16:58:06.375Z,98136.00
2022-12-09T17:00:35.240Z,98108.22
2022-12-09T17:03:10.528Z,98125.88
2022-12-09T17:05:44.629Z,98124.19
2022-12-09T17:08:16.504Z,98101.47
2022-12-09T17:10:45.325Z,98115.78
2022-12-09T17:13:14.175Z,98105.66
2022-12-09T17:15:43.079Z,98103.97
2022-12-09T17:18:12.215Z,98110.72
2022-12-09T17:20:42.435Z,98114.91
2022-12-09T17:23:11.594Z,98100.59
2022-12-09T17:25:40.158Z,98083.75
2022-12-09T17:28:08.884Z,98056.88
2022-12-09T17:30:40.099Z,98089.63
2022-12-09T17:33:08.919Z,98057.69
2022-12-09T17:35:39.656Z,98079.50
2022-12-09T17:38:09.814Z,98093.81
2022-12-09T17:40:38.975Z,98075.31
2022-12-09T17:43:11.428Z,98081.22
2022-12-09T17:45:42.330Z,98087.09
2022-12-09T17:48:11.888Z,98100.56
2022-12-09T17:50:40.848Z,98067.78
2022-12-09T17:53:10.977Z,98086.25
2022-12-09T17:55:39.887Z,98065.19
2022-12-09T17:58:08.528Z,98023.16
2022-12-09T18:00:39.745Z,98075.28
2022-12-09T18:03:14.010Z,98062.72
2022-12-09T18:05:46.555Z,98090.47
2022-12-09T18:08:16.834Z,98064.34
2022-12-09T18:10:46.744Z,98063.50
2022-12-09T18:13:15.358Z,98036.63
2022-12-09T18:15:44.029Z,98068.56
2022-12-09T18:18:12.726Z,98056.78
2022-12-09T18:20:41.507Z,98070.25
2022-12-09T18:23:10.207Z,98056.78
2022-12-09T18:25:42.197Z,98072.75
2022-12-09T18:28:10.863Z,98084.53
2022-12-09T18:30:40.025Z,98087.06
2022-12-09T18:33:08.834Z,98074.44
2022-12-09T18:35:41.137Z,98041.59
2022-12-09T18:38:12.862Z,98023.91
2022-12-09T18:41:01.183Z,98030.66
2022-12-09T18:43:31.118Z,98023.94
2022-12-09T18:46:03.367Z,98012.97
2022-12-09T18:48:33.073Z,98014.66
2022-12-09T18:51:01.483Z,98011.28
2022-12-09T18:53:30.407Z,98012.13
2022-12-09T18:56:04.476Z,98011.25
2022-12-09T18:59:04.320Z,98017.97
2022-12-09T19:01:25.282Z,98045.78
2022-12-09T19:03:55.717Z,98044.91
2022-12-09T19:06:27.204Z,98033.97
2022-12-09T19:09:09.079Z,98033.13
2022-12-09T19:11:41.345Z,98032.28
2022-12-09T19:14:14.285Z,98010.44
2022-12-09T19:16:44.163Z,98021.31
2022-12-09T19:19:15.246Z,98032.25
2022-12-09T19:21:44.929Z,98032.25
2022-12-09T19:24:15.876Z,98004.44
2022-12-09T19:26:46.818Z,97987.63
2022-12-09T19:29:18.013Z,98008.69
2022-12-09T19:31:48.657Z,98017.94
2022-12-09T19:34:19.595Z,98021.31
2022-12-09T19:36:50.316Z,98014.53
2022-12-09T19:39:21.073Z,98012.91
2022-12-09T19:41:51.688Z,98014.53
2022-12-09T19:44:44.279Z,98022.13
2022-12-09T19:47:11.707Z,97983.50
2022-12-09T19:49:41.748Z,98011.19
2022-12-09T19:52:10.427Z,98001.13
2022-12-09T19:54:39.356Z,98016.22
2022-12-09T19:57:09.426Z,98014.56
2022-12-09T19:59:38.073Z,98006.97
2022-12-09T20:02:12.198Z,97995.22
2022-12-09T20:04:50.332Z,97978.41
2022-12-09T20:07:19.659Z,97998.53
2022-12-09T20:09:48.654Z,98002.75
2022-12-09T20:12:18.833Z,97991.00
2022-12-09T20:14:47.628Z,97983.44
2022-12-09T20:17:17.603Z,97971.66
2022-12-09T20:19:46.287Z,98007.78
2022-12-09T20:22:14.948Z,98002.72
2022-12-09T20:24:44.562Z,98006.94
2022-12-09T20:27:13.330Z,98012.81
2022-12-09T20:29:43.536Z,98015.34
2022-12-09T20:32:12.674Z,98010.34
2022-12-09T20:34:41.519Z,98014.53
2022-12-09T20:37:10.235Z,98006.13
2022-12-09T20:39:39.349Z,98009.47
2022-12-09T20:42:07.865Z,98011.13
2022-12-09T20:44:36.667Z,97982.56
2022-12-09T20:47:06.722Z,97983.44
2022-12-09T20:49:35.353Z,97997.69
2022-12-09T20:52:03.962Z,97997.72
2022-12-09T20:54:32.597Z,97999.34
2022-12-09T20:57:01.448Z,97997.72
2022-12-09T20:59:30.215Z,98007.78
2022-12-09T21:01:58.759Z,98000.16
2022-12-09T21:04:29.229Z,98016.19
2022-12-09T21:06:57.835Z,98016.19
2022-12-09T21:09:27.616Z,98001.88
2022-12-09T21:11:57.428Z,98006.06
2022-12-09T21:14:31.156Z,97973.31
2022-12-09T21:17:02.287Z,98009.47
2022-12-09T21:19:32.690Z,98016.19
2022-12-09T21:22:04.406Z,98009.47
2022-12-09T21:24:33.301Z,97985.97
2022-12-09T21:27:02.036Z,97985.97
2022-12-09T21:29:32.374Z,98016.16
2022-12-09T21:32:02.314Z,98014.50
2022-12-09T21:34:32.469Z,98021.22
2022-12-09T21:37:01.434Z,98001.03
2022-12-09T21:39:30.143Z,97994.31
2022-12-09T21:41:58.878Z,98002.69
2022-12-09T21:44:29.078Z,97987.53
2022-12-09T21:46:57.678Z,97989.22
2022-12-09T21:49:26.647Z,98003.53
2022-12-09T21:51:57.124Z,98017.00
2022-12-09T21:54:25.696Z,98009.41
2022-12-09T21:56:54.279Z,97980.00
2022-12-09T21:59:22.916Z,98006.06
2022-12-09T22:01:51.518Z,98009.41
2022-12-09T22:04:20.170Z,97997.66
2022-12-09T22:06:50.378Z,97980.91
2022-12-09T22:09:21.287Z,98014.53
2022-12-09T22:11:50.166Z,98004.50
2022-12-09T22:14:19.107Z,98014.59
2022-12-09T22:16:48.105Z,98017.97
2022-12-09T22:19:19.136Z,98026.41
2022-12-09T22:21:48.326Z,98028.09
2022-12-09T22:24:17.357Z,98025.56
2022-12-09T22:26:47.875Z,98031.44
2022-12-09T22:29:18.485Z,98002.91
2022-12-09T22:31:47.648Z,98021.38
2022-12-09T22:34:19.429Z,98039.00
2022-12-09T22:36:49.088Z,98024.69
2022-12-09T22:39:20.033Z,98000.34
2022-12-09T22:41:50.238Z,98021.34
2022-12-09T22:44:20.746Z,98021.31
2022-12-09T22:46:49.835Z,98019.63
2022-12-09T22:49:19.006Z,98012.91
2022-12-09T22:51:48.386Z,98022.16
2022-12-09T22:54:17.060Z,98021.31
2022-12-09T22:56:46.366Z,98011.19
2022-12-09T22:59:16.795Z,98023.00
2022-12-09T23:01:48.906Z,98025.50
2022-12-09T23:04:22.138Z,98026.34
2022-12-09T23:06:52.699Z,98022.13
2022-12-09T23:09:25.127Z,98026.28
2022-12-09T23:11:54.644Z,98017.88
2022-12-09T23:14:24.912Z,98017.88
2022-12-09T23:16:53.517Z,98020.41
2022-12-09T23:19:22.177Z,97992.69
2022-12-09T23:21:50.817Z,98017.03
2022-12-09T23:24:24.632Z,98025.44
2022-12-09T23:26:55.986Z,98022.06
2022-12-09T23:29:26.347Z,98027.09
2022-12-09T23:31:55.008Z,98035.53
2022-12-09T23:34:23.717Z,98038.03
2022-12-09T23:36:52.677Z,98033.03
2022-12-09T23:39:21.364Z,98032.16
2022-12-09T23:41:51.022Z,98042.25
2022-12-09T23:44:20.577Z,98038.09
2022-12-09T23:46:50.391Z,98038.03
2022-12-09T23:49:18.807Z,98050.69
2022-12-09T23:51:48.217Z,98049.84
2022-12-09T23:54:18.633Z,98041.38
2022-12-09T23:56:51.138Z,98042.22
2022-12-09T23:59:21.838Z,98045.59
